createdAt,value
2022-11-30T00:00:01.383Z,12.43
2022-11-30T00:04:04.011Z,12.53
2022-11-30T00:08:06.661Z,12.10
2022-11-30T00:12:10.913Z,12.50
2022-11-30T00:16:14.125Z,11.33
2022-11-30T00:20:17.378Z,9.63
2022-11-30T00:24:20.219Z,9.87
2022-11-30T00:28:24.258Z,10.00
2022-11-30T00:32:27.131Z,9.27
2022-11-30T00:36:29.815Z,9.37
2022-11-30T00:40:32.425Z,9.87
2022-11-30T00:44:36.644Z,8.87
2022-11-30T00:48:39.709Z,9.73
2022-11-30T00:52:42.345Z,9.37
2022-11-30T00:56:44.993Z,8.87
2022-11-30T01:00:49.375Z,8.70
2022-11-30T01:04:52.042Z,9.53
2022-11-30T01:08:54.950Z,9.03
2022-11-30T01:12:57.790Z,9.03
2022-11-30T01:17:01.799Z,10.43
2022-11-30T01:21:07.444Z,9.40
2022-11-30T01:25:10.340Z,8.93
2022-11-30T01:29:12.990Z,9.43
2022-11-30T01:33:17.233Z,9.20
2022-11-30T01:37:20.039Z,8.40
2022-11-30T01:41:24.715Z,9.87
2022-11-30T01:45:27.573Z,9.53
2022-11-30T01:49:33.095Z,9.10
2022-11-30T01:53:35.699Z,8.27
2022-11-30T01:57:40.469Z,9.20
2022-11-30T02:01:43.775Z,10.00
2022-11-30T02:05:48.055Z,9.43
2022-11-30T02:09:50.735Z,10.13
2022-11-30T02:14:18.753Z,9.80
2022-11-30T02:18:26.734Z,10.93
2022-11-30T02:22:44.573Z,12.03
2022-11-30T02:26:59.345Z,10.87
2022-11-30T02:31:05.945Z,11.10
2022-11-30T02:35:09.241Z,10.67
2022-11-30T02:39:12.916Z,10.60
2022-11-30T02:43:16.271Z,10.00
2022-11-30T02:47:24.401Z,10.20
2022-11-30T02:51:28.199Z,10.50
2022-11-30T02:55:31.979Z,10.63
2022-11-30T02:59:34.710Z,11.47
2022-11-30T03:03:38.746Z,10.40
2022-11-30T03:07:41.393Z,11.63
2022-11-30T03:11:44.062Z,12.63
2022-11-30T03:15:47.736Z,13.00
2022-11-30T03:19:51.749Z,13.97
2022-11-30T03:23:54.450Z,12.63
2022-11-30T03:27:57.221Z,13.90
2022-11-30T03:31:59.855Z,12.07
2022-11-30T03:36:05.772Z,13.97
2022-11-30T03:40:10.119Z,11.93
2022-11-30T03:44:12.814Z,13.37
2022-11-30T03:48:15.480Z,12.50
2022-11-30T03:52:19.512Z,12.20
2022-11-30T03:56:22.129Z,13.50
2022-11-30T04:00:25.003Z,15.07
2022-11-30T04:04:27.667Z,13.03
2022-11-30T04:08:32.044Z,12.80
2022-11-30T04:12:34.694Z,14.33
2022-11-30T04:16:37.455Z,13.47
2022-11-30T04:20:40.770Z,13.30
2022-11-30T04:24:44.979Z,13.67
2022-11-30T04:28:48.093Z,13.67
2022-11-30T04:32:50.750Z,12.80
2022-11-30T04:36:58.757Z,13.07
2022-11-30T04:41:08.957Z,13.27
2022-11-30T04:45:12.796Z,13.23
2022-11-30T04:49:15.463Z,14.80
2022-11-30T04:53:18.613Z,13.10
2022-11-30T04:57:22.881Z,14.50
2022-11-30T05:01:25.627Z,13.47
2022-11-30T05:05:28.494Z,13.10
2022-11-30T05:09:31.419Z,13.97
2022-11-30T05:13:35.399Z,14.00
2022-11-30T05:17:38.139Z,12.23
2022-11-30T05:21:45.452Z,14.07
2022-11-30T05:25:49.239Z,14.77
2022-11-30T05:29:53.549Z,17.17
2022-11-30T05:33:56.269Z,14.83
2022-11-30T05:37:58.939Z,16.37
2022-11-30T05:42:01.642Z,14.23
2022-11-30T05:46:07.145Z,15.00
2022-11-30T05:50:10.448Z,14.87
2022-11-30T05:54:13.128Z,16.03
2022-11-30T05:58:15.813Z,14.30
2022-11-30T06:02:25.167Z,13.80
2022-11-30T06:06:30.505Z,17.27
2022-11-30T06:10:33.163Z,15.37
2022-11-30T06:14:35.919Z,16.70
2022-11-30T06:18:39.995Z,17.30
2022-11-30T06:22:46.084Z,19.23
2022-11-30T06:26:48.798Z,18.63
2022-11-30T06:30:51.591Z,20.50
2022-11-30T06:34:55.617Z,23.40
2022-11-30T06:38:58.324Z,29.27
2022-11-30T06:43:00.954Z,19.70
2022-11-30T06:47:03.568Z,21.73
2022-11-30T06:51:08.926Z,18.70
2022-11-30T06:55:11.938Z,19.50
2022-11-30T06:59:14.576Z,21.23
2022-11-30T07:03:17.253Z,21.87
2022-11-30T07:07:21.364Z,23.37
2022-11-30T07:11:24.284Z,21.07
2022-11-30T07:15:27.017Z,24.10
2022-11-30T07:19:29.999Z,23.77
2022-11-30T07:23:56.295Z,23.93
2022-11-30T07:27:59.709Z,23.87
2022-11-30T07:32:02.699Z,23.67
2022-11-30T07:36:05.558Z,24.47
2022-11-30T07:40:11.758Z,27.40
2022-11-30T07:44:14.544Z,26.13
2022-11-30T07:48:17.238Z,23.73
2022-11-30T07:52:20.193Z,23.13
2022-11-30T07:56:24.625Z,25.60
2022-11-30T08:00:27.319Z,23.90
2022-11-30T08:04:30.050Z,27.73
2022-11-30T08:08:33.735Z,25.53
2022-11-30T08:12:38.146Z,29.40
2022-11-30T08:16:40.854Z,29.53
2022-11-30T08:20:49.624Z,27.47
2022-11-30T08:24:53.088Z,24.50
2022-11-30T08:28:57.864Z,29.07
2022-11-30T08:33:00.586Z,25.43
2022-11-30T08:37:03.357Z,29.07
2022-11-30T08:41:07.260Z,27.20
2022-11-30T08:45:12.289Z,27.67
2022-11-30T08:49:22.684Z,27.30
2022-11-30T08:53:26.652Z,29.33
2022-11-30T08:57:29.494Z,30.23
2022-11-30T09:01:33.532Z,30.07
2022-11-30T09:05:36.238Z,28.57
2022-11-30T09:09:39.136Z,29.73
2022-11-30T09:13:43.157Z,31.63
2022-11-30T09:17:47.175Z,29.60
2022-11-30T09:21:52.273Z,27.50
2022-11-30T09:25:56.795Z,28.60
2022-11-30T09:29:59.494Z,30.23
2022-11-30T09:34:03.513Z,31.00
2022-11-30T09:38:06.432Z,28.53
2022-11-30T09:42:27.541Z,30.77
2022-11-30T09:46:35.250Z,33.10
2022-11-30T09:50:43.656Z,32.83
2022-11-30T09:54:48.060Z,32.17
2022-11-30T09:58:55.377Z,30.47
2022-11-30T10:03:00.493Z,33.50
2022-11-30T10:07:13.134Z,29.87
2022-11-30T10:11:29.157Z,31.37
2022-11-30T10:15:37.312Z,31.93
2022-11-30T10:19:53.589Z,30.83
2022-11-30T10:24:09.560Z,31.87
2022-11-30T10:28:45.716Z,30.50
2022-11-30T10:32:42.716Z,29.87
2022-11-30T10:36:47.476Z,28.27
2022-11-30T10:40:55.250Z,28.43
2022-11-30T10:45:01.053Z,29.30
2022-11-30T10:49:06.604Z,26.97
2022-11-30T10:53:11.805Z,28.60
2022-11-30T10:57:15.865Z,26.40
2022-11-30T11:01:33.152Z,46.13
2022-11-30T11:05:35.939Z,81.73
2022-11-30T11:09:40.727Z,28.97
2022-11-30T11:13:45.189Z,26.40
2022-11-30T11:17:48.098Z,23.83
2022-11-30T11:21:51.406Z,25.53
2022-11-30T11:25:54.244Z,22.93
2022-11-30T11:30:05.424Z,26.23
2022-11-30T11:34:25.128Z,25.33
2022-11-30T11:38:29.821Z,27.70
2022-11-30T11:42:34.597Z,25.30
2022-11-30T11:46:39.995Z,28.80
2022-11-30T11:55:07.341Z,27.53
2022-11-30T11:59:15.524Z,27.57
2022-11-30T12:03:27.869Z,25.27
2022-11-30T12:07:35.251Z,29.50
2022-11-30T12:11:41.725Z,27.40
2022-11-30T12:15:54.775Z,29.17
2022-11-30T12:20:04.335Z,27.23
2022-11-30T12:24:49.232Z,28.80
2022-11-30T12:29:15.210Z,28.23
2022-11-30T12:33:27.051Z,27.20
2022-11-30T12:37:43.033Z,31.87
2022-11-30T12:41:52.494Z,27.67
2022-11-30T12:45:59.331Z,29.93
2022-11-30T12:50:17.469Z,28.53
2022-11-30T12:54:27.330Z,30.33
2022-11-30T12:58:37.345Z,31.67
2022-11-30T13:02:52.289Z,28.93
2022-11-30T13:06:57.540Z,29.40
2022-11-30T13:11:04.504Z,28.73
2022-11-30T13:15:15.535Z,27.53
2022-11-30T13:19:36.131Z,30.10
2022-11-30T13:23:41.825Z,28.30
2022-11-30T13:27:53.466Z,28.20
2022-11-30T13:32:05.424Z,27.63
2022-11-30T13:36:23.924Z,29.63
2022-11-30T13:40:26.921Z,27.17
2022-11-30T13:44:33.731Z,28.20
2022-11-30T13:48:39.566Z,28.27
2022-11-30T13:53:22.691Z,27.70
2022-11-30T13:58:02.899Z,25.33
2022-11-30T14:07:39.039Z,23.53
2022-11-30T14:11:44.080Z,25.40
2022-11-30T14:15:56.518Z,24.77
2022-11-30T14:20:01.199Z,27.03
2022-11-30T14:24:09.016Z,28.10
2022-11-30T14:28:16.081Z,25.43
2022-11-30T14:32:25.025Z,24.30
2022-11-30T14:36:35.090Z,25.07
2022-11-30T14:40:39.554Z,24.70
2022-11-30T14:44:42.218Z,23.73
2022-11-30T14:48:45.360Z,23.40
2022-11-30T14:52:56.483Z,23.70
2022-11-30T14:57:06.369Z,22.97
2022-11-30T15:01:18.859Z,20.90
2022-11-30T15:05:23.922Z,21.83
2022-11-30T15:09:29.163Z,20.83
2022-11-30T15:13:33.422Z,25.70
2022-11-30T15:17:47.104Z,22.90
2022-11-30T15:21:50.395Z,24.77
2022-11-30T15:25:56.408Z,22.40
2022-11-30T15:30:02.177Z,24.27
2022-11-30T15:34:05.833Z,22.07
2022-11-30T15:38:09.636Z,23.70
2022-11-30T15:42:19.892Z,23.63
2022-11-30T15:46:33.675Z,23.80
2022-11-30T15:50:39.525Z,22.90
2022-11-30T15:54:49.804Z,24.33
2022-11-30T15:59:02.018Z,21.07
2022-11-30T16:03:13.861Z,20.60
2022-11-30T16:07:18.081Z,19.07
2022-11-30T16:11:20.932Z,21.67
2022-11-30T16:15:25.346Z,19.70
2022-11-30T16:19:29.327Z,20.67
2022-11-30T16:23:34.934Z,20.57
2022-11-30T16:27:37.809Z,21.73
2022-11-30T16:31:40.564Z,22.17
2022-11-30T16:35:49.139Z,22.30
2022-11-30T16:39:51.844Z,21.47
2022-11-30T16:43:55.858Z,25.57
2022-11-30T16:47:58.544Z,26.43
2022-11-30T16:52:03.779Z,24.30
2022-11-30T16:56:06.944Z,28.20
2022-11-30T17:00:11.986Z,27.73
2022-11-30T17:04:18.603Z,25.00
2022-11-30T17:08:22.665Z,26.63
2022-11-30T17:12:25.322Z,26.60
2022-11-30T17:16:28.529Z,24.63
2022-11-30T17:20:31.160Z,25.17
2022-11-30T17:24:35.487Z,24.73
2022-11-30T17:28:38.504Z,24.73
2022-11-30T17:32:41.236Z,22.83
2022-11-30T17:36:44.302Z,23.87
2022-11-30T17:40:48.469Z,22.87
2022-11-30T17:44:51.225Z,23.53
2022-11-30T17:48:54.231Z,22.47
2022-11-30T17:52:56.963Z,25.80
2022-11-30T17:57:01.060Z,25.00
2022-11-30T18:01:03.832Z,23.27
2022-11-30T18:05:07.389Z,25.83
2022-11-30T18:09:10.149Z,24.07
2022-11-30T18:13:14.278Z,24.33
2022-11-30T18:17:17.000Z,22.57
2022-11-30T18:21:21.701Z,23.17
2022-11-30T18:25:24.344Z,23.90
2022-11-30T18:29:28.640Z,25.90
2022-11-30T18:33:31.331Z,26.37
2022-11-30T18:37:34.461Z,24.03
2022-11-30T18:41:37.202Z,22.43
2022-11-30T18:45:41.470Z,22.73
2022-11-30T18:49:44.151Z,23.70
2022-11-30T18:53:47.439Z,23.87
2022-11-30T18:57:50.329Z,26.03
2022-11-30T19:01:55.351Z,22.87
2022-11-30T19:05:58.143Z,24.90
2022-11-30T19:10:03.739Z,24.20
2022-11-30T19:14:06.960Z,25.50
2022-11-30T19:18:11.986Z,27.33
2022-11-30T19:22:14.656Z,25.60
2022-11-30T19:26:17.310Z,25.90
2022-11-30T19:30:20.083Z,22.27
2022-11-30T19:34:24.261Z,25.23
2022-11-30T19:38:26.909Z,24.43
2022-11-30T19:42:31.270Z,23.87
2022-11-30T19:46:34.710Z,43.43
2022-11-30T19:50:39.165Z,37.63
2022-11-30T19:54:41.823Z,26.17
2022-11-30T19:58:45.374Z,23.70
2022-11-30T20:02:49.581Z,24.67
2022-11-30T20:06:54.020Z,26.23
2022-11-30T20:10:56.898Z,25.53
2022-11-30T20:14:59.574Z,23.00
2022-11-30T20:19:03.280Z,24.13
2022-11-30T20:23:07.630Z,22.70
2022-11-30T20:27:10.300Z,24.00
2022-11-30T20:31:14.796Z,25.43
2022-11-30T20:35:17.547Z,26.80
2022-11-30T20:39:21.598Z,25.97
2022-11-30T20:43:24.319Z,23.83
2022-11-30T20:47:29.834Z,25.20
2022-11-30T20:51:35.584Z,23.73
2022-11-30T20:55:39.699Z,27.10
2022-11-30T20:59:42.477Z,25.10
2022-11-30T21:03:45.532Z,27.53
2022-11-30T21:07:48.674Z,26.07
2022-11-30T21:11:53.037Z,23.00
2022-11-30T21:15:55.725Z,22.53
2022-11-30T21:19:58.416Z,22.37
2022-11-30T21:24:02.756Z,22.67
2022-11-30T21:28:07.096Z,26.03
2022-11-30T21:32:09.767Z,25.17
2022-11-30T21:36:14.759Z,27.17
2022-11-30T21:40:17.482Z,23.80
2022-11-30T21:44:22.134Z,23.23
2022-11-30T21:48:25.128Z,25.30
2022-11-30T21:52:27.900Z,24.07
2022-11-30T21:56:32.369Z,22.70
2022-11-30T22:00:36.384Z,22.60
2022-11-30T22:04:39.260Z,23.00
2022-11-30T22:08:42.364Z,23.63
2022-11-30T22:12:45.526Z,23.70
2022-11-30T22:16:49.539Z,21.77
2022-11-30T22:20:52.175Z,25.47
2022-11-30T22:24:55.688Z,22.40
2022-11-30T22:28:59.872Z,24.77
2022-11-30T22:33:03.899Z,22.43
2022-11-30T22:37:06.529Z,20.33
2022-11-30T22:41:11.295Z,21.93
2022-11-30T22:45:14.195Z,22.70
2022-11-30T22:49:21.693Z,20.60
2022-11-30T22:53:25.020Z,18.90
2022-11-30T22:57:27.962Z,19.23
2022-11-30T23:01:31.934Z,19.57
2022-11-30T23:05:36.795Z,19.17
2022-11-30T23:09:39.413Z,18.23
2022-11-30T23:13:43.535Z,19.87
2022-11-30T23:17:46.212Z,18.60
2022-11-30T23:21:50.815Z,17.87
2022-11-30T23:25:53.770Z,16.90
2022-11-30T23:29:56.470Z,16.27
2022-11-30T23:33:59.145Z,17.43
2022-11-30T23:38:03.727Z,16.73
2022-11-30T23:42:06.546Z,16.50
2022-11-30T23:46:10.745Z,15.23
2022-11-30T23:50:13.453Z,15.77
2022-11-30T23:54:17.528Z,17.63
2022-11-30T23:58:21.016Z,17.00
